Time;durP1;ratioP1;P1;durP2;ratioP2;P2;SDS_P1;SDS_P2;PMS_P1;PMS_P2;Temp;Humidity;BMP_temperature;BMP_pressure;BME280_temperature;BME280_humidity;BME280_pressure;Samples;Min_cycle;Max_cycle;Signal;HPM_P1;HPM_P2
2023/07/30 00:01:37;;;;;;;12.68;6.88;;;;;;;24.25;48.97;100945.97;5033013;28;20057;-33
2023/07/30 00:04:04;;;;;;;17.13;7.63;;;;;;;24.23;49.18;100948.84;5033187;28;20080;-32
2023/07/30 00:06:31;;;;;;;14.02;7.50;;;;;;;24.21;48.97;100948.22;5033934;28;20050;-33
2023/07/30 00:08:57;;;;;;;12.38;6.63;;;;;;;24.17;49.65;100946.94;5031181;28;20091;-33
2023/07/30 00:11:24;;;;;;;13.77;7.47;;;;;;;24.16;49.89;100955.22;5034020;28;20077;-35
2023/07/30 00:13:51;;;;;;;13.32;6.57;;;;;;;24.13;49.92;100956.47;5034713;28;20592;-33
2023/07/30 00:16:17;;;;;;;11.32;6.22;;;;;;;24.12;49.38;100952.06;5035104;28;20136;-33
2023/07/30 00:18:44;;;;;;;14.82;6.63;;;;;;;24.08;49.86;100953.47;5030850;28;20041;-33
2023/07/30 00:21:10;;;;;;;12.60;5.85;;;;;;;24.05;49.32;100960.13;5031506;28;20135;-34
2023/07/30 00:23:37;;;;;;;13.85;5.70;;;;;;;24.02;49.66;100955.09;5038356;28;20115;-35
2023/07/30 00:26:04;;;;;;;11.80;5.95;;;;;;;24.01;49.44;100960.69;5029396;28;20053;-33
2023/07/30 00:28:30;;;;;;;10.77;5.85;;;;;;;23.98;49.34;100963.78;5032608;28;20388;-33
2023/07/30 00:30:57;;;;;;;11.13;6.18;;;;;;;23.94;49.48;100955.19;5029081;28;20053;-34
2023/07/30 00:33:24;;;;;;;11.43;5.90;;;;;;;23.92;49.63;100953.69;5022524;28;20384;-32
2023/07/30 00:35:52;;;;;;;9.80;5.63;;;;;;;23.88;50.13;100945.97;5022598;28;20049;-33
2023/07/30 00:38:19;;;;;;;13.40;5.07;;;;;;;23.87;49.73;100960.50;5024102;28;20441;-34
2023/07/30 00:40:46;;;;;;;10.73;5.20;;;;;;;23.84;49.84;100954.63;5028017;28;20107;-33
2023/07/30 00:43:12;;;;;;;11.88;5.38;;;;;;;23.80;50.23;100954.22;5029603;28;20073;-33
2023/07/30 00:45:42;;;;;;;9.32;5.18;;;;;;;23.80;49.56;100950.63;5023337;28;20049;-33
2023/07/30 00:48:10;;;;;;;10.27;4.45;;;;;;;23.79;50.12;100959.78;5022627;28;20421;-38
2023/07/30 00:50:38;;;;;;;11.00;5.40;;;;;;;23.76;49.80;100962.88;5026730;28;20057;-34
2023/07/30 00:53:07;;;;;;;10.18;4.75;;;;;;;23.74;49.67;100967.66;5026057;28;20049;-34
2023/07/30 00:55:34;;;;;;;11.65;4.13;;;;;;;23.71;49.98;100965.31;5026773;28;20132;-33
2023/07/30 00:58:02;;;;;;;10.27;4.80;;;;;;;23.71;50.29;100965.31;5026993;28;20046;-33
2023/07/30 01:00:29;;;;;;;8.30;4.68;;;;;;;23.69;49.96;100970.09;5027987;28;20049;-35
2023/07/30 01:02:56;;;;;;;10.57;4.53;;;;;;;23.66;50.02;100974.00;5025963;28;20445;-33
2023/07/30 01:05:23;;;;;;;9.82;4.40;;;;;;;23.64;49.73;100971.47;5024347;28;20050;-34
2023/07/30 01:07:49;;;;;;;7.22;3.80;;;;;;;23.63;50.30;100974.34;5025464;28;20049;-36
2023/07/30 01:10:16;;;;;;;8.93;3.60;;;;;;;23.61;50.58;100974.53;5023255;28;20057;-34
2023/07/30 01:12:44;;;;;;;7.25;3.58;;;;;;;23.59;50.26;100971.16;5029385;28;20051;-33
2023/07/30 01:15:12;;;;;;;8.05;4.28;;;;;;;23.58;50.00;100974.91;5027073;28;20128;-34
2023/07/30 01:17:39;;;;;;;9.20;3.80;;;;;;;23.56;49.96;100968.00;5025719;28;20144;-33
2023/07/30 01:20:06;;;;;;;7.45;3.85;;;;;;;23.55;50.55;100977.97;5025047;28;20081;-33
2023/07/30 01:22:33;;;;;;;7.93;3.70;;;;;;;23.54;50.57;100976.31;5025296;28;20045;-33
2023/07/30 01:25:00;;;;;;;7.53;3.42;;;;;;;23.53;49.92;100973.78;5027206;28;20073;-34
2023/07/30 01:27:29;;;;;;;8.05;3.65;;;;;;;23.51;50.00;100986.66;5027522;28;20104;-35
2023/07/30 01:30:22;;;;;;;7.63;3.38;;;;;;;23.49;50.65;100977.91;5026075;28;20139;-33
2023/07/30 01:32:52;;;;;;;7.15;3.55;;;;;;;23.50;50.11;100982.28;5025772;28;21732;-34
2023/07/30 01:35:24;;;;;;;9.10;3.83;;;;;;;23.49;50.40;100980.59;5024631;28;20056;-33
2023/07/30 01:37:51;;;;;;;7.22;3.58;;;;;;;23.47;50.31;100979.94;5026087;28;20400;-34
2023/07/30 01:40:18;;;;;;;6.65;3.22;;;;;;;23.46;50.55;100981.81;5028983;28;20463;-35
2023/07/30 01:42:45;;;;;;;7.65;3.70;;;;;;;23.45;50.46;100980.13;5030803;28;20057;-33
2023/07/30 01:45:11;;;;;;;9.38;3.22;;;;;;;23.44;50.07;100974.88;5032346;28;20503;-34
2023/07/30 01:47:38;;;;;;;5.75;2.63;;;;;;;23.44;50.57;100980.31;5024769;28;20530;-33
2023/07/30 01:50:05;;;;;;;8.52;3.28;;;;;;;23.42;50.38;100977.78;5031146;28;20042;-37
2023/07/30 01:52:32;;;;;;;7.20;3.05;;;;;;;23.40;50.85;100975.28;5031801;28;20045;-33
2023/07/30 01:55:00;;;;;;;6.30;2.72;;;;;;;23.39;50.53;100978.16;5026935;28;20057;-33
2023/07/30 01:57:27;;;;;;;8.88;3.05;;;;;;;23.38;50.82;100985.44;5028023;28;20053;-34
2023/07/30 01:59:54;;;;;;;7.85;3.05;;;;;;;23.36;50.45;100982.09;5037525;28;20108;-34
2023/07/30 02:02:20;;;;;;;7.45;2.80;;;;;;;23.36;50.58;100983.97;5032521;28;20134;-34
2023/07/30 02:04:47;;;;;;;7.97;3.08;;;;;;;23.34;50.67;100980.59;5033694;28;20057;-34
2023/07/30 02:07:13;;;;;;;5.50;2.72;;;;;;;23.33;50.90;100987.03;5033639;28;20045;-34
2023/07/30 02:09:40;;;;;;;7.32;3.20;;;;;;;23.31;50.74;100981.78;5034712;28;20136;-34
2023/07/30 02:12:07;;;;;;;7.72;3.05;;;;;;;23.31;50.51;100980.94;5032370;28;20050;-34
2023/07/30 02:14:34;;;;;;;7.13;2.75;;;;;;;23.30;50.89;100984.69;5029495;28;20412;-33
2023/07/30 02:17:00;;;;;;;6.82;2.60;;;;;;;23.30;50.74;100995.50;5028538;28;20081;-34
2023/07/30 02:19:27;;;;;;;7.53;2.88;;;;;;;23.29;50.65;100991.97;5029236;28;20431;-34
2023/07/30 02:21:53;;;;;;;7.45;2.67;;;;;;;23.28;50.73;100993.00;5028648;28;20045;-34
2023/07/30 02:24:20;;;;;;;7.35;2.80;;;;;;;23.27;50.97;100985.06;5029722;28;20095;-33
2023/07/30 02:26:48;;;;;;;5.47;2.55;;;;;;;23.26;51.11;100984.22;5031427;28;20404;-34
2023/07/30 02:29:15;;;;;;;9.35;2.70;;;;;;;23.25;50.63;100987.94;5032671;28;20046;-34
2023/07/30 02:31:41;;;;;;;8.05;2.72;;;;;;;23.24;50.94;100980.03;5029994;28;20053;-34
2023/07/30 02:34:08;;;;;;;6.10;2.65;;;;;;;23.24;50.99;100990.84;5024542;28;20553;-34
2023/07/30 02:36:36;;;;;;;5.65;2.38;;;;;;;23.23;51.24;100987.28;5024354;28;20049;-34
2023/07/30 02:39:02;;;;;;;6.88;2.22;;;;;;;23.23;50.97;100981.03;5027454;28;20057;-34
2023/07/30 02:41:29;;;;;;;5.32;2.42;;;;;;;23.21;51.13;100980.41;5031072;28;20128;-34
2023/07/30 02:43:55;;;;;;;7.25;2.10;;;;;;;23.20;51.27;100979.56;5027975;28;20057;-34
2023/07/30 02:46:22;;;;;;;7.35;2.85;;;;;;;23.19;51.38;100977.03;5027576;28;20056;-34
2023/07/30 02:48:48;;;;;;;5.60;2.22;;;;;;;23.19;51.30;100985.13;5026980;28;20144;-34
2023/07/30 02:51:15;;;;;;;6.95;2.67;;;;;;;23.17;50.75;100977.22;5028057;28;20375;-34
2023/07/30 02:53:44;;;;;;;8.88;2.92;;;;;;;23.17;50.78;100979.91;5027224;28;20112;-34
2023/07/30 02:56:11;;;;;;;5.18;2.30;;;;;;;23.16;51.38;100978.25;5026405;28;20041;-34
2023/07/30 02:58:37;;;;;;;5.07;2.15;;;;;;;23.15;51.18;100982.78;5028072;28;20365;-33
2023/07/30 03:01:08;;;;;;;6.25;2.10;;;;;;;23.13;51.20;100974.03;5026131;28;20057;-35
2023/07/30 03:03:35;;;;;;;10.02;2.47;;;;;;;23.12;51.04;100980.47;5026033;28;20084;-34
2023/07/30 03:06:01;;;;;;;7.00;2.30;;;;;;;23.10;51.12;100974.41;5028787;28;20052;-34
2023/07/30 03:08:28;;;;;;;6.82;2.17;;;;;;;23.09;51.08;100966.47;5026796;28;20045;-34
2023/07/30 03:10:58;;;;;;;7.47;2.55;;;;;;;23.09;51.48;100971.88;5027342;28;20087;-34
2023/07/30 03:13:24;;;;;;;10.23;2.20;;;;;;;23.07;51.43;100974.75;5025117;28;20045;-34
2023/07/30 03:15:51;;;;;;;4.25;1.88;;;;;;;23.06;51.11;100973.09;5024877;28;20076;-33
2023/07/30 03:18:17;;;;;;;5.57;2.20;;;;;;;23.06;51.58;100974.94;5026267;28;20140;-34
2023/07/30 03:20:44;;;;;;;6.00;2.33;;;;;;;23.05;51.29;100976.81;5028707;28;21834;-33
2023/07/30 03:23:11;;;;;;;7.35;2.42;;;;;;;23.03;50.97;100976.16;5024531;28;20146;-33
2023/07/30 03:25:37;;;;;;;7.63;2.20;;;;;;;23.03;51.49;100978.84;5031558;28;20527;-33
2023/07/30 03:28:04;;;;;;;8.10;2.40;;;;;;;23.01;51.81;100975.50;5033890;28;20085;-33
2023/07/30 03:30:30;;;;;;;8.13;2.47;;;;;;;23.00;51.77;100979.25;5027010;28;20050;-33
2023/07/30 03:32:57;;;;;;;7.55;2.10;;;;;;;23.00;51.41;100975.72;5025292;28;20092;-34
2023/07/30 03:35:24;;;;;;;6.45;2.00;;;;;;;23.00;51.54;100978.41;5028079;28;20045;-33
2023/07/30 03:37:51;;;;;;;5.40;2.28;;;;;;;22.99;52.01;100976.69;5031891;28;20057;-35
2023/07/30 03:40:17;;;;;;;6.68;2.20;;;;;;;22.98;51.80;100981.28;5025886;28;20432;-34
2023/07/30 03:42:44;;;;;;;8.32;2.10;;;;;;;22.98;51.51;100986.69;5030719;28;20199;-33
2023/07/30 03:45:11;;;;;;;9.38;2.30;;;;;;;22.96;51.71;100986.03;5030340;28;20483;-34
2023/07/30 03:47:37;;;;;;;6.78;2.35;;;;;;;22.97;51.61;100984.19;5031662;28;20341;-33
2023/07/30 03:50:04;;;;;;;7.78;2.30;;;;;;;22.96;51.60;100983.34;5030530;28;20064;-33
2023/07/30 03:52:31;;;;;;;5.63;2.45;;;;;;;22.95;51.82;100981.63;5035328;28;20092;-33
2023/07/30 03:54:57;;;;;;;8.65;2.30;;;;;;;22.95;51.90;100980.81;5033987;28;20135;-33
2023/07/30 03:57:24;;;;;;;7.32;2.42;;;;;;;22.94;51.40;100985.38;5028014;28;20322;-33
2023/07/30 03:59:51;;;;;;;6.70;2.00;;;;;;;22.95;51.65;100986.22;5036173;28;20045;-33
2023/07/30 04:02:17;;;;;;;7.35;2.60;;;;;;;22.94;52.05;100990.78;5031771;28;20156;-32
2023/07/30 04:04:46;;;;;;;9.40;2.67;;;;;;;22.93;51.95;100993.66;5035694;28;20064;-33
2023/07/30 04:07:12;;;;;;;8.52;2.30;;;;;;;22.93;51.66;100991.81;5029280;28;20385;-33
2023/07/30 04:09:39;;;;;;;7.80;2.38;;;;;;;22.92;51.99;100992.00;5034236;28;20496;-33
2023/07/30 04:12:05;;;;;;;10.13;2.22;;;;;;;22.91;51.58;100996.53;5032302;28;20180;-33
2023/07/30 04:14:32;;;;;;;7.72;2.30;;;;;;;22.92;51.97;100992.00;5033356;28;20142;-34
2023/07/30 04:16:59;;;;;;;7.05;2.03;;;;;;;22.90;52.08;100998.41;5026159;28;20053;-33
2023/07/30 04:19:25;;;;;;;6.97;2.13;;;;;;;22.91;52.01;100996.53;5027609;28;20044;-33
2023/07/30 04:21:53;;;;;;;7.18;2.00;;;;;;;22.91;52.11;100993.84;5029059;28;20107;-34
2023/07/30 04:24:19;;;;;;;8.30;2.25;;;;;;;22.89;51.95;100999.41;5031055;28;20081;-33
2023/07/30 04:26:46;;;;;;;10.45;2.67;;;;;;;22.90;52.10;100994.84;5029880;28;20052;-33
2023/07/30 04:29:13;;;;;;;9.05;2.47;;;;;;;22.90;51.92;101001.09;5028455;28;20045;-34
2023/07/30 04:31:40;;;;;;;6.05;1.95;;;;;;;22.90;51.86;101002.94;5027914;28;20049;-36
2023/07/30 04:34:07;;;;;;;10.35;2.67;;;;;;;22.89;52.15;101003.97;5023510;28;20096;-33
2023/07/30 04:36:33;;;;;;;8.48;2.40;;;;;;;22.89;52.22;101006.69;5024719;28;20657;-33
2023/07/30 04:39:00;;;;;;;9.25;2.67;;;;;;;22.88;51.71;101000.44;5025626;28;20046;-33
2023/07/30 04:41:27;;;;;;;10.35;2.53;;;;;;;22.89;51.97;101012.09;5024275;28;20150;-34
2023/07/30 04:43:53;;;;;;;9.73;2.22;;;;;;;22.87;52.22;101006.88;5027356;28;20049;-33
2023/07/30 04:46:20;;;;;;;6.45;2.05;;;;;;;22.87;52.12;101006.88;5028388;28;20076;-33
2023/07/30 04:48:46;;;;;;;6.40;2.13;;;;;;;22.88;51.76;101007.72;5023420;28;20042;-33
2023/07/30 04:51:13;;;;;;;6.60;2.78;;;;;;;22.88;51.70;101010.41;5026681;28;20045;-34
2023/07/30 04:53:40;;;;;;;7.38;2.33;;;;;;;22.88;51.99;101005.00;5024004;28;20492;-33
2023/07/30 04:56:06;;;;;;;6.75;2.33;;;;;;;22.88;52.06;100999.59;5022951;28;20072;-34
2023/07/30 04:58:33;;;;;;;7.60;1.90;;;;;;;22.86;52.37;101010.56;5025680;28;20141;-33
2023/07/30 05:00:59;;;;;;;6.57;2.03;;;;;;;22.88;51.94;101013.13;5025613;28;20107;-34
2023/07/30 05:03:26;;;;;;;10.00;2.30;;;;;;;22.88;52.21;101019.34;5025461;28;20041;-32
2023/07/30 05:05:53;;;;;;;5.95;2.45;;;;;;;22.88;52.32;101013.13;5025553;28;20135;-33
2023/07/30 05:08:20;;;;;;;6.78;2.40;;;;;;;22.88;52.12;101013.94;5026954;28;20056;-35
2023/07/30 05:10:46;;;;;;;7.00;2.17;;;;;;;22.89;51.89;101003.97;5025871;28;20056;-33
2023/07/30 05:13:13;;;;;;;7.70;2.38;;;;;;;22.89;52.05;101009.38;5027079;28;20235;-34
2023/07/30 05:15:39;;;;;;;5.72;1.90;;;;;;;22.88;52.20;101010.41;5030030;28;20447;-34
2023/07/30 05:18:06;;;;;;;8.00;2.22;;;;;;;22.89;51.90;101012.91;5025818;28;20060;-33
2023/07/30 05:20:32;;;;;;;9.23;2.42;;;;;;;22.89;52.04;101006.69;5024962;28;20045;-33
2023/07/30 05:22:59;;;;;;;6.68;1.92;;;;;;;22.88;52.32;101013.94;5025266;28;20136;-33
2023/07/30 05:25:26;;;;;;;8.68;2.25;;;;;;;22.89;52.07;101017.50;5029032;28;20385;-33
2023/07/30 05:27:52;;;;;;;9.05;1.98;;;;;;;22.89;52.19;101015.63;5028119;28;20077;-34
2023/07/30 05:30:19;;;;;;;6.25;2.00;;;;;;;22.89;52.06;101021.03;5028790;28;20049;-34
2023/07/30 05:32:46;;;;;;;7.82;2.55;;;;;;;22.89;52.13;101021.03;5022792;28;20053;-33
2023/07/30 05:35:12;;;;;;;7.80;2.47;;;;;;;22.90;51.98;101024.56;5025718;28;20060;-33
2023/07/30 05:37:39;;;;;;;6.88;2.60;;;;;;;22.89;51.99;101025.59;5029226;28;20772;-33
2023/07/30 05:40:06;;;;;;;6.88;2.33;;;;;;;22.90;52.32;101029.97;5027596;28;20107;-34
2023/07/30 05:42:33;;;;;;;7.63;2.17;;;;;;;22.89;52.66;101015.63;5025663;28;20053;-33
2023/07/30 05:45:00;;;;;;;6.55;1.92;;;;;;;22.90;52.22;101029.97;5031381;28;20049;-33
2023/07/30 05:47:26;;;;;;;8.75;2.03;;;;;;;22.91;52.50;101028.97;5039357;28;20712;-33
2023/07/30 05:49:53;;;;;;;7.10;2.75;;;;;;;22.90;52.70;101028.13;5022896;28;20042;-36
2023/07/30 05:52:19;;;;;;;11.15;2.40;;;;;;;22.91;52.30;101026.28;5026778;28;20085;-33
2023/07/30 05:54:46;;;;;;;10.57;2.50;;;;;;;22.91;52.28;101031.69;5025194;28;20396;-33
2023/07/30 05:57:13;;;;;;;9.07;2.08;;;;;;;22.92;52.07;101029.84;5026614;28;20111;-33
2023/07/30 05:59:39;;;;;;;11.77;2.78;;;;;;;22.92;52.46;101030.69;5031375;28;20049;-34
2023/07/30 06:02:06;;;;;;;7.40;2.67;;;;;;;22.93;52.41;101029.66;5025083;28;20065;-34
2023/07/30 06:04:33;;;;;;;10.20;2.45;;;;;;;22.94;53.04;101028.63;5023626;28;20073;-34
2023/07/30 06:07:02;;;;;;;8.55;2.55;;;;;;;22.95;52.22;101035.69;5024164;28;20168;-33
2023/07/30 06:09:30;;;;;;;8.45;2.33;;;;;;;22.96;52.31;101036.56;5019251;28;20057;-35
2023/07/30 06:11:57;;;;;;;4.75;2.13;;;;;;;22.96;52.03;101032.00;5024773;28;20197;-33
2023/07/30 06:14:25;;;;;;;9.10;2.28;;;;;;;22.95;52.74;101027.59;5025952;28;20421;-33
2023/07/30 06:16:53;;;;;;;7.95;2.05;;;;;;;22.96;52.45;101025.75;5021870;28;20678;-34
2023/07/30 06:19:20;;;;;;;10.73;2.42;;;;;;;22.97;52.32;101032.84;5025782;28;20111;-34
2023/07/30 06:21:46;;;;;;;9.65;2.58;;;;;;;22.97;52.80;101027.44;5027557;28;20045;-33
2023/07/30 06:24:13;;;;;;;11.82;3.25;;;;;;;22.97;52.21;101022.84;5027639;28;20073;-33
2023/07/30 06:26:39;;;;;;;11.68;3.63;;;;;;;22.97;52.40;101019.31;5029613;28;20073;-33
2023/07/30 06:29:06;;;;;;;13.10;3.58;;;;;;;22.98;52.93;101023.69;5031472;28;20501;-33
2023/07/30 06:31:33;;;;;;;11.35;3.20;;;;;;;22.99;52.78;101025.38;5025262;28;20097;-33
2023/07/30 06:33:59;;;;;;;15.88;4.55;;;;;;;22.99;52.72;101017.25;5029760;28;20077;-33
2023/07/30 06:36:26;;;;;;;9.98;3.75;;;;;;;23.01;52.66;101020.63;5031643;28;20049;-33
2023/07/30 06:38:52;;;;;;;17.30;4.18;;;;;;;23.01;52.47;101018.75;5028730;28;20099;-33
2023/07/30 06:41:19;;;;;;;16.00;3.88;;;;;;;23.01;53.23;101018.75;5030317;28;20049;-35
2023/07/30 06:43:46;;;;;;;10.80;3.35;;;;;;;23.01;52.71;101018.75;5033266;28;20081;-34
2023/07/30 06:46:12;;;;;;;15.07;3.35;;;;;;;23.01;52.74;101021.47;5023131;28;20483;-33
2023/07/30 06:48:42;;;;;;;13.45;4.10;;;;;;;23.01;52.99;101032.28;5026740;28;20045;-35
2023/07/30 06:51:09;;;;;;;15.27;3.65;;;;;;;23.00;53.02;101033.31;5028974;28;20148;-33
2023/07/30 06:53:36;;;;;;;17.00;4.30;;;;;;;23.01;53.29;101032.28;5027228;28;20045;-35
2023/07/30 06:56:03;;;;;;;18.20;5.18;;;;;;;23.00;53.06;101027.06;5032371;28;20069;-33
2023/07/30 06:58:30;;;;;;;20.15;6.10;;;;;;;23.01;53.17;101034.16;5029616;28;20425;-36
2023/07/30 07:00:56;;;;;;;13.18;5.40;;;;;;;23.02;53.15;101030.41;5033173;28;20049;-35
2023/07/30 07:03:23;;;;;;;21.73;6.70;;;;;;;23.01;53.17;101023.34;5027446;28;20053;-33
2023/07/30 07:05:56;;;;;;;19.90;5.75;;;;;;;23.00;53.15;101024.38;5030961;28;20076;-34
2023/07/30 07:08:23;;;;;;;21.27;6.35;;;;;;;23.03;53.23;101038.34;5030874;28;20049;-33
2023/07/30 07:10:50;;;;;;;18.58;6.03;;;;;;;23.04;53.49;101031.94;5030257;28;20147;-34
2023/07/30 07:13:16;;;;;;;16.48;5.20;;;;;;;23.05;52.99;101027.34;5033238;28;20103;-33
2023/07/30 07:15:44;;;;;;;15.88;5.40;;;;;;;23.06;53.63;101029.03;5027731;28;20041;-34
2023/07/30 07:18:11;;;;;;;17.98;4.65;;;;;;;23.08;53.42;101013.47;5026073;28;20049;-33
2023/07/30 07:20:38;;;;;;;17.38;4.97;;;;;;;23.08;53.71;101011.63;5023152;28;20339;-34
2023/07/30 07:23:04;;;;;;;17.25;4.78;;;;;;;23.10;53.59;101023.06;5024576;28;20049;-33
2023/07/30 07:25:31;;;;;;;15.57;4.40;;;;;;;23.11;53.46;101024.75;5022748;28;20053;-33
2023/07/30 07:27:57;;;;;;;19.48;5.05;;;;;;;23.13;52.88;101027.28;5023432;28;20057;-34
2023/07/30 07:30:24;;;;;;;19.55;5.35;;;;;;;23.13;53.60;101022.72;5027102;28;20048;-34
2023/07/30 07:32:53;;;;;;;19.27;7.03;;;;;;;23.15;53.34;101019.81;5024031;28;20068;-33
2023/07/30 07:35:23;;;;;;;26.73;6.43;;;;;;;23.16;53.12;101035.03;5027713;28;20081;-34
2023/07/30 07:37:49;;;;;;;23.15;5.57;;;;;;;23.18;52.90;101035.69;5023997;28;20107;-34
2023/07/30 07:40:16;;;;;;;23.10;7.30;;;;;;;23.19;53.11;101040.06;5028320;28;20081;-33
2023/07/30 07:42:43;;;;;;;22.05;6.30;;;;;;;23.17;52.71;101046.69;5024708;28;20053;-33
2023/07/30 07:45:09;;;;;;;20.60;5.90;;;;;;;23.18;52.78;101049.19;5023660;28;20057;-34
2023/07/30 07:47:36;;;;;;;19.58;6.35;;;;;;;23.19;53.18;101055.44;5023467;28;20045;-34
2023/07/30 07:50:03;;;;;;;18.55;5.35;;;;;;;23.18;52.75;101062.72;5026601;28;20045;-33
2023/07/30 07:52:29;;;;;;;19.95;6.18;;;;;;;23.19;52.95;101072.50;5027746;28;20111;-33
2023/07/30 07:54:56;;;;;;;16.55;5.35;;;;;;;23.19;52.93;101053.56;5029993;28;20052;-33
2023/07/30 07:57:22;;;;;;;20.00;6.03;;;;;;;23.21;52.93;101058.81;5030755;28;20045;-33
2023/07/30 07:59:49;;;;;;;17.60;6.13;;;;;;;23.20;53.02;101057.97;5029848;28;20433;-34
2023/07/30 08:02:16;;;;;;;16.00;5.53;;;;;;;23.21;53.24;101058.81;5026039;28;20140;-33
2023/07/30 08:04:42;;;;;;;19.50;6.60;;;;;;;23.21;52.57;101073.19;5032219;28;20049;-32
2023/07/30 08:07:09;;;;;;;18.38;6.32;;;;;;;23.23;52.55;101079.22;5029272;28;20057;-33
2023/07/30 08:09:36;;;;;;;18.48;5.55;;;;;;;23.24;52.69;101053.06;5028455;28;20053;-34
2023/07/30 08:12:03;;;;;;;15.95;5.00;;;;;;;23.25;52.34;101060.13;5031688;28;20099;-33
2023/07/30 08:14:31;;;;;;;15.02;4.90;;;;;;;23.24;52.96;101066.56;5027427;28;20133;-33
2023/07/30 08:16:57;;;;;;;16.27;5.05;;;;;;;23.26;52.80;101075.34;5026770;28;20080;-35
2023/07/30 08:19:24;;;;;;;16.77;4.75;;;;;;;23.26;53.10;101065.34;5029404;28;20050;-33
2023/07/30 08:21:50;;;;;;;16.67;6.05;;;;;;;23.28;52.76;101070.59;5027225;28;20049;-33
2023/07/30 08:24:17;;;;;;;17.40;5.68;;;;;;;23.30;52.84;101060.41;5026361;28;20587;-40
2023/07/30 08:26:44;;;;;;;15.73;4.90;;;;;;;23.31;53.38;101062.94;5028053;28;20057;-34
2023/07/30 08:29:13;;;;;;;18.42;5.47;;;;;;;23.32;52.97;101059.22;5029313;28;20053;-38
2023/07/30 08:31:41;;;;;;;17.58;4.90;;;;;;;23.35;52.78;101066.09;5025898;28;20045;-33
2023/07/30 08:34:08;;;;;;;15.02;4.97;;;;;;;23.36;53.10;101055.13;5023019;28;20453;-34
2023/07/30 08:36:34;;;;;;;11.35;4.30;;;;;;;23.38;53.26;101052.22;5023383;28;20456;-35
2023/07/30 08:39:03;;;;;;;15.80;4.85;;;;;;;23.39;52.68;101052.03;5027534;28;20049;-34
2023/07/30 08:41:31;;;;;;;14.20;4.25;;;;;;;23.41;53.05;101051.88;5029126;28;20433;-35
2023/07/30 08:43:57;;;;;;;16.35;4.25;;;;;;;23.43;53.12;101065.19;5027972;28;20787;-34
2023/07/30 08:46:24;;;;;;;11.02;4.07;;;;;;;23.45;52.52;101063.16;5029183;28;20053;-34
2023/07/30 08:48:51;;;;;;;12.98;4.22;;;;;;;23.45;52.77;101074.81;5030363;28;20140;-34
2023/07/30 08:51:18;;;;;;;11.93;3.75;;;;;;;23.46;52.96;101071.09;5026732;28;20132;-34
2023/07/30 08:53:46;;;;;;;11.23;3.33;;;;;;;23.46;52.86;101054.84;5028635;28;20083;-34
2023/07/30 08:56:13;;;;;;;12.85;3.83;;;;;;;23.47;52.30;101069.22;5029011;28;20108;-34
2023/07/30 08:58:41;;;;;;;10.57;3.25;;;;;;;23.48;52.38;101068.19;5026539;28;20079;-33
2023/07/30 09:01:12;;;;;;;16.63;4.25;;;;;;;23.48;52.81;101065.47;5024789;28;20045;-34
2023/07/30 09:03:40;;;;;;;14.45;5.55;;;;;;;23.49;52.37;101081.53;5023784;28;20151;-33
2023/07/30 09:06:07;;;;;;;15.57;6.32;;;;;;;23.50;52.73;101080.50;5022736;28;20050;-34
2023/07/30 09:08:34;;;;;;;12.35;5.63;;;;;;;23.51;52.19;101079.47;5026161;28;20108;-34
2023/07/30 09:11:11;;;;;;;17.50;6.35;;;;;;;23.52;52.49;101083.06;5028975;28;20068;-33
2023/07/30 09:13:39;;;;;;;14.82;5.57;;;;;;;23.54;52.71;101089.09;5024262;28;20433;-34
2023/07/30 09:16:13;;;;;;;28.92;7.82;;;;;;;23.55;52.65;101088.06;5024276;28;20048;-35
2023/07/30 09:18:41;;;;;;;20.02;8.63;;;;;;;23.56;52.54;101092.47;5023089;28;20069;-34
2023/07/30 09:21:11;;;;;;;19.95;8.32;;;;;;;23.56;52.11;101096.03;5025355;28;20104;-35
2023/07/30 09:23:46;;;;;;;17.30;8.48;;;;;;;23.57;51.78;101089.56;5026664;28;20050;-34
2023/07/30 09:26:14;;;;;;;15.43;7.30;;;;;;;23.60;51.93;101097.34;5025366;28;20084;-35
2023/07/30 09:28:40;;;;;;;22.63;8.27;;;;;;;23.61;51.88;101090.88;5028554;28;20342;-35
2023/07/30 09:31:08;;;;;;;15.82;6.88;;;;;;;23.63;51.37;101091.53;5025368;28;20045;-34
2023/07/30 09:33:47;;;;;;;14.77;6.63;;;;;;;23.66;51.40;101086.81;5027839;28;20049;-34
2023/07/30 09:36:18;;;;;;;13.30;6.65;;;;;;;23.69;51.78;101089.16;5022713;28;20123;-34
2023/07/30 09:38:46;;;;;;;16.13;7.93;;;;;;;23.72;51.30;101086.06;5025884;28;20053;-34
2023/07/30 09:41:14;;;;;;;16.20;7.97;;;;;;;23.73;51.60;101088.59;5028229;28;20049;-34
2023/07/30 09:43:41;;;;;;;16.77;8.70;;;;;;;23.75;51.20;101089.25;5027441;28;20053;-33
2023/07/30 09:46:08;;;;;;;15.90;6.93;;;;;;;23.80;51.20;101096.81;5027879;28;20052;-33
2023/07/30 09:48:35;;;;;;;13.75;7.20;;;;;;;23.84;51.29;101104.41;5020345;28;20429;-33
2023/07/30 09:51:03;;;;;;;14.25;6.95;;;;;;;23.87;51.46;101112.13;5025555;28;20046;-33
2023/07/30 09:53:34;;;;;;;14.23;7.40;;;;;;;23.91;51.01;101114.47;5022737;28;20175;-33
2023/07/30 09:56:02;;;;;;;22.20;8.07;;;;;;;23.94;50.60;101123.06;5024106;28;21635;-33
2023/07/30 09:58:30;;;;;;;15.68;6.78;;;;;;;23.97;50.58;101133.53;5022744;28;20080;-33
2023/07/30 10:01:00;;;;;;;16.65;6.68;;;;;;;24.01;50.81;101134.00;5025728;28;20068;-34
2023/07/30 10:03:27;;;;;;;17.02;6.35;;;;;;;24.03;50.61;101135.47;5020423;28;20134;-33
2023/07/30 10:06:03;;;;;;;15.18;6.53;;;;;;;24.03;50.29;101146.31;5025125;28;20099;-33
2023/07/30 10:08:34;;;;;;;13.55;6.30;;;;;;;24.07;50.13;101134.06;5024814;28;20057;-33
2023/07/30 10:11:07;;;;;;;10.95;5.65;;;;;;;24.09;49.99;101132.03;5027085;28;20123;-33
2023/07/30 10:13:36;;;;;;;15.82;6.35;;;;;;;24.11;49.90;101140.78;5030953;28;20045;-34
2023/07/30 10:16:02;;;;;;;12.65;5.28;;;;;;;24.14;49.46;101136.88;5026215;28;20152;-33
2023/07/30 10:18:42;;;;;;;11.55;4.55;;;;;;;24.13;49.50;101140.63;5029241;28;20279;-35
2023/07/30 10:21:10;;;;;;;10.15;5.60;;;;;;;24.14;49.72;101156.69;5026841;28;20073;-33
2023/07/30 10:23:57;;;;;;;11.57;5.57;;;;;;;24.16;49.77;101144.81;5029391;28;20045;-33
2023/07/30 10:26:32;;;;;;;12.98;5.68;;;;;;;24.18;49.69;101162.56;5028589;28;20049;-33
2023/07/30 10:29:11;;;;;;;14.65;6.07;;;;;;;24.21;49.85;101156.78;5029032;28;20084;-33
2023/07/30 10:31:42;;;;;;;14.65;6.45;;;;;;;24.25;49.57;101147.25;5032032;28;20402;-33
2023/07/30 10:34:10;;;;;;;12.52;6.28;;;;;;;24.29;49.97;101145.00;5030585;28;20135;-34
2023/07/30 10:36:44;;;;;;;17.15;6.05;;;;;;;24.30;49.50;101143.97;5031183;28;20045;-33
2023/07/30 10:39:28;;;;;;;12.27;5.35;;;;;;;24.33;48.53;101140.91;5027965;28;20164;-34
2023/07/30 10:41:55;;;;;;;;;;;;;;;24.34;48.50;101140.69;5028352;28;20765;-33
2023/07/30 10:44:27;;;;;;;10.40;4.47;;;;;;;24.38;48.89;101147.44;5026358;28;20059;-33
2023/07/30 10:46:55;;;;;;;14.80;5.05;;;;;;;24.39;48.61;101151.00;5023183;28;20409;-33
2023/07/30 10:49:23;;;;;;;12.02;4.57;;;;;;;24.38;48.41;101158.28;5027255;28;20050;-33
2023/07/30 10:51:52;;;;;;;10.88;4.20;;;;;;;24.37;48.31;101169.28;5026689;28;20041;-33
2023/07/30 10:54:20;;;;;;;11.38;3.40;;;;;;;24.36;47.87;101154.03;5028052;28;20386;-34
2023/07/30 10:56:46;;;;;;;7.80;3.60;;;;;;;24.34;48.05;101156.94;5028240;28;20154;-33
2023/07/30 10:59:14;;;;;;;13.23;3.03;;;;;;;24.32;48.31;101160.88;5028433;28;20183;-33
2023/07/30 11:01:43;;;;;;;10.55;3.40;;;;;;;24.32;48.31;101167.16;5028668;28;20152;-34
2023/07/30 11:04:14;;;;;;;7.95;2.80;;;;;;;24.32;47.78;101177.13;5030069;28;20667;-34
2023/07/30 11:06:51;;;;;;;7.03;2.58;;;;;;;24.30;47.26;101177.31;5029908;28;20044;-33
2023/07/30 11:09:26;;;;;;;11.77;2.83;;;;;;;24.30;47.32;101171.06;5027895;28;20690;-33
2023/07/30 11:11:55;;;;;;;9.85;2.80;;;;;;;24.30;47.05;101171.06;5027633;28;20115;-34
2023/07/30 11:14:25;;;;;;;6.97;2.30;;;;;;;24.30;47.39;101176.47;5026596;28;20049;-33
2023/07/30 11:16:58;;;;;;;6.05;2.35;;;;;;;24.28;47.80;101184.81;5027282;28;20049;-34
2023/07/30 11:19:26;;;;;;;10.10;2.50;;;;;;;24.29;47.36;101186.47;5029538;28;20133;-33
2023/07/30 11:21:54;;;;;;;8.18;2.13;;;;;;;24.30;47.83;101184.59;5026638;28;20107;-33
2023/07/30 11:24:24;;;;;;;5.28;1.90;;;;;;;24.29;47.60;101189.19;5026374;28;20077;-33